FAHS/HDS METAR and TAF weather

Enter ICAO airport designator
Station Type Date Time Source
FAHS METAR 2022/06/28 08:00 UTC NOAA

FAHS 280800Z AUTO 15009KT //// // ////// 16/14 Q1037


Station Type Date Time Source
FAHS Decoded METAR 2022/06/28 08:00 UTC NOAA

Hoedspruit, South Africa (FAHS) 24-22S 031-02E 500M
Jun 28, 2022 - 04:00 AM EDT / 2022.06.28 0800 UTC
Wind: from the SSE (150 degrees) at 10 MPH (9 KT):0
Temperature: 60 F (16 C)
Dew Point: 57 F (14 C)
Relative Humidity: 87%
Pressure (altimeter): 30.62 in. Hg (1037 hPa)
ob: FAHS 280800Z AUTO 15009KT //// // ////// 16/14 Q1037
cycle: 8

Station Type Date Time Source
FAHS TAF 2017/05/23 04:01 UTC NOAA

TAF FAHS 230300Z 2304/2315 VRB02KT CAVOK TX29/2312ZTN12/2304Z

Example: see airport list